createdAt,value
2023-04-05T00:00:22.945Z,13.77
2023-04-05T00:02:49.866Z,14.68
2023-04-05T00:05:29.371Z,15.40
2023-04-05T00:08:00.855Z,15.30
2023-04-05T00:10:32.570Z,14.25
2023-04-05T00:12:59.559Z,15.82
2023-04-05T00:15:27.920Z,12.85
2023-04-05T00:17:55.618Z,12.50
2023-04-05T00:20:22.428Z,13.60
2023-04-05T00:22:50.982Z,14.98
2023-04-05T00:25:18.479Z,13.10
2023-04-05T00:27:45.375Z,12.18
2023-04-05T00:30:12.379Z,12.23
2023-04-05T00:32:39.169Z,12.20
2023-04-05T00:35:06.511Z,13.10
2023-04-05T00:37:33.158Z,12.50
2023-04-05T00:39:59.948Z,9.73
2023-04-05T00:42:26.748Z,12.73
2023-04-05T00:44:53.382Z,9.90
2023-04-05T00:47:20.052Z,12.10
2023-04-05T00:49:46.768Z,13.73
2023-04-05T00:52:15.633Z,10.20
2023-04-05T00:54:43.580Z,11.52
2023-04-05T00:57:11.132Z,12.23
2023-04-05T00:59:37.974Z,12.13
2023-04-05T01:02:24.708Z,10.45
2023-04-05T01:05:01.068Z,12.68
2023-04-05T01:07:36.214Z,11.30
2023-04-05T01:10:05.588Z,10.23
2023-04-05T01:12:33.590Z,10.40
2023-04-05T01:15:01.210Z,10.23
2023-04-05T01:17:30.067Z,11.00
2023-04-05T01:20:03.949Z,11.57
2023-04-05T01:23:14.895Z,10.40
2023-04-05T01:26:06.863Z,10.43
2023-04-05T01:28:45.879Z,10.25
2023-04-05T01:31:26.952Z,9.82
2023-04-05T01:33:59.554Z,12.30
2023-04-05T01:36:41.876Z,10.70
2023-04-05T01:39:11.467Z,9.15
2023-04-05T01:41:40.428Z,8.98
2023-04-05T01:44:07.472Z,7.68
2023-04-05T01:46:34.346Z,8.10
2023-04-05T01:49:01.062Z,7.10
2023-04-05T01:51:28.042Z,9.90
2023-04-05T01:53:54.667Z,5.45
2023-04-05T01:56:21.370Z,5.90
2023-04-05T01:58:47.984Z,5.75
2023-04-05T02:01:15.162Z,5.93
2023-04-05T02:03:42.320Z,5.70
2023-04-05T02:06:09.024Z,5.22
2023-04-05T02:08:35.966Z,7.43
2023-04-05T02:11:02.636Z,4.75
2023-04-05T02:13:29.372Z,5.28
2023-04-05T02:15:56.077Z,5.65
2023-04-05T02:18:22.821Z,5.85
2023-04-05T02:20:52.536Z,6.28
2023-04-05T02:23:20.294Z,5.70
2023-04-05T02:25:47.173Z,7.45
2023-04-05T02:28:13.888Z,6.53
2023-04-05T02:30:41.198Z,5.53
2023-04-05T02:33:09.736Z,6.35
2023-04-05T02:35:36.691Z,5.47
2023-04-05T02:38:04.775Z,5.45
2023-04-05T02:40:32.104Z,7.13
2023-04-05T02:42:59.139Z,4.43
2023-04-05T02:45:27.903Z,5.07
2023-04-05T02:47:55.506Z,5.07
2023-04-05T02:50:23.483Z,4.70
2023-04-05T02:52:51.362Z,5.05
2023-04-05T02:55:18.391Z,4.10
2023-04-05T02:57:46.884Z,7.68
2023-04-05T03:00:14.441Z,6.18
2023-04-05T03:02:41.201Z,8.18
2023-04-05T03:05:09.329Z,7.03
2023-04-05T03:07:35.988Z,6.07
2023-04-05T03:10:03.151Z,4.20
2023-04-05T03:12:29.818Z,6.78
2023-04-05T03:14:56.448Z,6.40
2023-04-05T03:17:23.116Z,6.50
2023-04-05T03:19:49.743Z,7.45
2023-04-05T03:22:16.701Z,6.53
2023-04-05T03:24:43.552Z,6.05
2023-04-05T03:27:10.137Z,6.70
2023-04-05T03:29:36.708Z,4.88
2023-04-05T03:32:03.324Z,5.45
2023-04-05T03:34:29.993Z,5.28
2023-04-05T03:36:56.656Z,6.72
2023-04-05T03:39:23.402Z,10.82
2023-04-05T03:41:50.037Z,5.25
2023-04-05T03:44:16.622Z,10.77
2023-04-05T03:46:44.079Z,5.43
2023-04-05T03:49:10.950Z,6.13
2023-04-05T03:51:37.580Z,6.03
2023-04-05T03:54:04.372Z,6.32
2023-04-05T03:56:32.386Z,5.68
2023-04-05T03:58:59.270Z,9.40
2023-04-05T04:01:26.000Z,7.15
2023-04-05T04:03:52.648Z,7.95
2023-04-05T04:06:19.704Z,4.85
2023-04-05T04:08:46.528Z,4.72
2023-04-05T04:11:13.248Z,4.25
2023-04-05T04:13:39.809Z,3.83
2023-04-05T04:16:06.541Z,4.05
2023-04-05T04:18:33.366Z,4.63
2023-04-05T04:21:06.984Z,3.53
2023-04-05T04:23:38.734Z,4.60
2023-04-05T04:26:06.149Z,8.40
2023-04-05T04:28:34.915Z,4.25
2023-04-05T04:31:05.163Z,3.90
2023-04-05T04:33:31.948Z,3.33
2023-04-05T04:35:58.573Z,3.90
2023-04-05T04:38:26.193Z,3.70
2023-04-05T04:40:53.932Z,3.53
2023-04-05T04:43:27.592Z,2.25
2023-04-05T04:45:57.090Z,2.70
2023-04-05T04:48:23.754Z,2.63
2023-04-05T04:50:50.559Z,4.35
2023-04-05T04:53:24.111Z,3.85
2023-04-05T04:55:51.102Z,2.97
2023-04-05T04:58:18.144Z,3.97
2023-04-05T05:00:45.135Z,2.78
2023-04-05T05:03:12.909Z,19.98
2023-04-05T05:05:49.380Z,20.90
2023-04-05T05:08:18.833Z,24.73
2023-04-05T05:10:52.669Z,19.67
2023-04-05T05:13:19.791Z,16.42
2023-04-05T05:15:46.951Z,4.20
2023-04-05T05:18:13.780Z,2.28
2023-04-05T05:20:41.633Z,2.55
2023-04-05T05:23:08.694Z,2.50
2023-04-05T05:25:35.584Z,2.65
2023-04-05T05:28:02.311Z,1.65
2023-04-05T05:30:29.256Z,2.03
2023-04-05T05:32:57.914Z,3.10
2023-04-05T05:35:24.601Z,3.05
2023-04-05T05:37:51.237Z,3.05
2023-04-05T05:40:17.883Z,3.08
2023-04-05T05:42:44.519Z,1.75
2023-04-05T05:45:11.270Z,2.65
2023-04-05T05:47:38.143Z,1.50
2023-04-05T05:50:05.580Z,2.97
2023-04-05T05:52:32.306Z,1.48
2023-04-05T05:54:58.922Z,2.22
2023-04-05T05:57:25.866Z,2.53
2023-04-05T05:59:52.445Z,1.92
2023-04-05T06:02:19.355Z,1.88
2023-04-05T06:04:46.038Z,1.58
2023-04-05T06:07:12.737Z,2.38
2023-04-05T06:09:39.551Z,2.97
2023-04-05T06:12:06.622Z,1.48
2023-04-05T06:14:33.566Z,3.80
2023-04-05T06:17:00.253Z,1.33
2023-04-05T06:19:26.932Z,2.05
2023-04-05T06:21:55.023Z,2.28
2023-04-05T06:24:21.740Z,2.17
2023-04-05T06:26:48.403Z,2.17
2023-04-05T06:29:15.066Z,3.55
2023-04-05T06:31:42.816Z,2.55
2023-04-05T06:34:09.724Z,3.08
2023-04-05T06:36:36.377Z,2.58
2023-04-05T06:39:03.242Z,1.33
2023-04-05T06:41:29.860Z,1.85
2023-04-05T06:43:56.797Z,2.15
2023-04-05T06:46:24.411Z,2.00
2023-04-05T06:48:52.509Z,1.58
2023-04-05T06:51:19.590Z,1.75
2023-04-05T06:53:46.489Z,1.05
2023-04-05T06:56:13.333Z,1.92
2023-04-05T06:58:40.094Z,1.80
2023-04-05T07:01:07.655Z,1.15
2023-04-05T07:03:34.591Z,2.55
2023-04-05T07:06:01.556Z,6.15
2023-04-05T07:08:29.426Z,2.90
2023-04-05T07:10:56.210Z,3.00
2023-04-05T07:13:24.889Z,3.58
2023-04-05T07:15:53.157Z,3.00
2023-04-05T07:18:20.522Z,2.20
2023-04-05T07:20:49.230Z,1.65
2023-04-05T07:23:16.706Z,1.52
2023-04-05T07:25:43.993Z,1.42
2023-04-05T07:28:10.625Z,1.25
2023-04-05T07:30:37.849Z,2.45
2023-04-05T07:33:04.826Z,1.58
2023-04-05T07:35:31.788Z,2.05
2023-04-05T07:37:58.845Z,2.75
2023-04-05T07:40:25.854Z,2.70
2023-04-05T07:42:52.517Z,2.55
2023-04-05T07:45:19.502Z,1.10
2023-04-05T07:47:46.830Z,1.30
2023-04-05T07:50:15.406Z,2.45
2023-04-05T07:52:43.420Z,2.33
2023-04-05T07:55:10.455Z,1.63
2023-04-05T07:57:37.873Z,2.45
2023-04-05T08:00:11.071Z,3.22
2023-04-05T08:02:38.057Z,3.08
2023-04-05T08:05:05.606Z,1.30
2023-04-05T08:07:32.430Z,1.25
2023-04-05T08:10:00.467Z,1.67
2023-04-05T08:12:27.857Z,3.53
2023-04-05T08:14:54.830Z,1.15
2023-04-05T08:17:21.643Z,1.23
2023-04-05T08:19:49.450Z,0.98
2023-04-05T08:22:17.893Z,6.90
2023-04-05T08:24:45.066Z,3.85
2023-04-05T08:27:12.152Z,1.90
2023-04-05T08:29:38.941Z,2.55
2023-04-05T08:32:06.217Z,1.67
2023-04-05T08:34:33.085Z,2.38
2023-04-05T08:37:00.441Z,2.42
2023-04-05T08:39:27.218Z,1.45
2023-04-05T08:42:05.944Z,1.50
2023-04-05T08:44:36.684Z,1.65
2023-04-05T08:47:03.350Z,2.22
2023-04-05T08:49:30.147Z,2.45
2023-04-05T08:51:58.723Z,1.60
2023-04-05T08:54:25.577Z,2.30
2023-04-05T08:56:54.728Z,1.38
2023-04-05T08:59:22.631Z,2.05
2023-04-05T09:01:51.622Z,2.53
2023-04-05T09:04:28.305Z,2.08
2023-04-05T09:06:58.266Z,1.50
2023-04-05T09:09:25.934Z,3.85
2023-04-05T09:11:52.929Z,1.92
2023-04-05T09:14:21.491Z,2.80
2023-04-05T09:16:48.247Z,1.52
2023-04-05T09:19:15.044Z,3.78
2023-04-05T09:22:04.425Z,2.50
2023-04-05T09:24:37.228Z,2.15
2023-04-05T09:27:11.625Z,1.90
2023-04-05T09:29:40.322Z,1.92
2023-04-05T09:32:09.305Z,2.13
2023-04-05T09:34:37.670Z,3.92
2023-04-05T09:37:22.389Z,3.15
2023-04-05T09:39:52.099Z,3.47
2023-04-05T09:42:23.136Z,5.05
2023-04-05T09:44:57.614Z,1.98
2023-04-05T09:47:31.273Z,2.63
2023-04-05T09:50:14.145Z,2.55
2023-04-05T09:52:40.919Z,3.47
2023-04-05T09:55:08.340Z,2.75
2023-04-05T09:57:37.689Z,2.72
2023-04-05T10:00:06.886Z,3.10
2023-04-05T10:02:38.003Z,2.30
2023-04-05T10:05:12.548Z,2.35
2023-04-05T10:07:43.245Z,3.22
2023-04-05T10:10:13.933Z,3.63
2023-04-05T10:12:41.845Z,5.05
2023-04-05T10:15:14.172Z,4.53
2023-04-05T10:20:28.255Z,3.58
2023-04-05T10:23:10.282Z,5.07
2023-04-05T10:25:45.110Z,4.82
2023-04-05T10:28:18.586Z,4.47
2023-04-05T10:30:49.630Z,4.57
2023-04-05T10:33:31.981Z,4.88
2023-04-05T10:39:21.988Z,5.78
2023-04-05T10:41:54.355Z,8.15
2023-04-05T10:49:29.918Z,6.53
2023-04-05T10:51:57.065Z,3.78
2023-04-05T10:54:26.937Z,9.75
2023-04-05T10:56:53.942Z,4.97
2023-04-05T10:59:22.608Z,5.45
2023-04-05T11:01:49.913Z,6.43
2023-04-05T11:04:17.572Z,6.68
2023-04-05T11:06:48.221Z,6.03
2023-04-05T11:09:17.429Z,4.85
2023-04-05T11:11:46.537Z,4.45
2023-04-05T11:14:35.348Z,6.03
2023-04-05T11:17:03.426Z,5.22
2023-04-05T11:19:48.276Z,4.78
2023-04-05T11:22:26.631Z,5.38
2023-04-05T11:25:03.135Z,6.30
2023-04-05T11:27:32.321Z,4.43
2023-04-05T11:30:00.649Z,4.70
2023-04-05T11:32:46.460Z,4.38
2023-04-05T11:35:15.290Z,4.80
2023-04-05T11:38:00.044Z,6.55
2023-04-05T11:40:30.957Z,5.18
2023-04-05T11:43:07.874Z,4.13
2023-04-05T11:45:37.199Z,5.45
2023-04-05T11:48:08.563Z,4.97
2023-04-05T11:50:38.403Z,4.27
2023-04-05T11:53:16.300Z,5.22
2023-04-05T11:55:45.523Z,5.32
2023-04-05T11:58:21.627Z,3.60
2023-04-05T12:01:04.232Z,8.05
2023-04-05T12:03:31.592Z,5.95
2023-04-05T12:06:00.176Z,5.20
2023-04-05T12:08:50.207Z,13.60
2023-04-05T12:11:24.407Z,4.95
2023-04-05T12:13:54.692Z,7.07
2023-04-05T12:16:21.509Z,4.95
2023-04-05T12:18:54.474Z,7.45
2023-04-05T12:21:22.050Z,7.05
2023-04-05T12:23:50.380Z,7.53
2023-04-05T12:26:17.345Z,6.97
2023-04-05T12:28:58.385Z,6.80
2023-04-05T12:31:45.041Z,7.78
2023-04-05T12:34:14.673Z,5.25
2023-04-05T12:36:46.536Z,8.90
2023-04-05T12:39:13.259Z,9.15
2023-04-05T12:41:40.419Z,7.90
2023-04-05T12:44:16.950Z,7.13
2023-04-05T12:46:45.471Z,5.35
2023-04-05T12:49:17.216Z,5.18
2023-04-05T12:51:44.949Z,7.78
2023-04-05T12:54:22.781Z,6.20
2023-04-05T12:56:54.667Z,13.90
2023-04-05T12:59:22.708Z,6.05
2023-04-05T13:01:49.970Z,4.40
2023-04-05T13:04:17.155Z,5.55
2023-04-05T13:06:47.531Z,7.75
2023-04-05T13:09:15.121Z,5.65
2023-04-05T13:11:41.781Z,3.88
2023-04-05T13:14:09.100Z,5.55
2023-04-05T13:16:36.587Z,5.65
2023-04-05T13:19:03.315Z,6.03
2023-04-05T13:21:31.223Z,7.72
2023-04-05T13:23:58.074Z,5.78
2023-04-05T13:26:24.722Z,7.05
2023-04-05T13:28:51.533Z,5.80
2023-04-05T13:31:18.261Z,7.32
2023-04-05T13:33:45.033Z,7.57
2023-04-05T13:36:12.736Z,6.28
2023-04-05T13:38:39.903Z,8.55
2023-04-05T13:41:06.733Z,8.45
2023-04-05T13:43:33.578Z,7.03
2023-04-05T13:46:00.563Z,6.93
2023-04-05T13:48:27.338Z,8.68
2023-04-05T13:50:54.054Z,5.68
2023-04-05T13:53:20.712Z,7.13
2023-04-05T13:55:47.406Z,8.82
2023-04-05T13:58:14.600Z,8.07
2023-04-05T14:00:42.035Z,6.63
2023-04-05T14:03:09.310Z,8.35
2023-04-05T14:05:36.452Z,8.40
2023-04-05T14:08:03.250Z,6.82
2023-04-05T14:10:31.946Z,10.45
2023-04-05T14:12:58.721Z,6.90
2023-04-05T14:15:25.718Z,9.13
2023-04-05T14:17:52.570Z,6.53
2023-04-05T14:20:19.520Z,15.35
2023-04-05T14:22:46.273Z,8.50
2023-04-05T14:25:13.144Z,7.57
2023-04-05T14:27:42.497Z,10.77
2023-04-05T14:30:11.441Z,8.88
2023-04-05T14:32:38.519Z,8.63
2023-04-05T14:35:05.725Z,10.93
2023-04-05T14:37:32.312Z,7.13
2023-04-05T14:39:59.024Z,9.38
2023-04-05T14:42:34.127Z,10.88
2023-04-05T14:45:08.936Z,8.18
2023-04-05T14:47:35.859Z,8.52
2023-04-05T14:50:02.603Z,8.25
2023-04-05T14:52:30.008Z,7.93
2023-04-05T14:54:56.791Z,9.48
2023-04-05T14:57:23.449Z,5.72
2023-04-05T14:59:50.492Z,8.52
2023-04-05T15:02:17.388Z,7.07
2023-04-05T15:04:44.128Z,9.73
2023-04-05T15:07:11.057Z,9.45
2023-04-05T15:09:38.008Z,14.25
2023-04-05T15:12:04.795Z,11.50
2023-04-05T15:14:32.603Z,12.02
2023-04-05T15:16:59.601Z,13.40
2023-04-05T15:19:27.433Z,13.75
2023-04-05T15:21:54.216Z,14.00
2023-04-05T15:24:20.964Z,14.43
2023-04-05T15:26:47.694Z,11.05
2023-04-05T15:29:14.525Z,14.93
2023-04-05T15:31:41.933Z,12.18
2023-04-05T15:34:08.797Z,7.43
2023-04-05T15:36:36.272Z,13.52
2023-04-05T15:39:05.257Z,9.90
2023-04-05T15:41:34.255Z,8.75
2023-04-05T15:44:01.693Z,12.88
2023-04-05T15:46:29.558Z,12.07
2023-04-05T15:48:56.366Z,12.15
2023-04-05T15:51:23.324Z,10.45
2023-04-05T15:53:50.286Z,9.75
2023-04-05T15:56:17.325Z,11.85
2023-04-05T15:58:44.586Z,10.82
2023-04-05T16:01:11.394Z,9.50
2023-04-05T16:03:38.749Z,9.82
2023-04-05T16:06:05.637Z,12.20
2023-04-05T16:08:32.449Z,10.98
2023-04-05T16:10:59.219Z,12.05
2023-04-05T16:13:26.515Z,10.18
2023-04-05T16:15:53.428Z,11.20
2023-04-05T16:18:21.314Z,11.60
2023-04-05T16:20:48.571Z,10.05
2023-04-05T16:23:15.737Z,19.80
2023-04-05T16:25:42.552Z,13.60
2023-04-05T16:28:09.404Z,11.70
2023-04-05T16:30:36.874Z,11.57
2023-04-05T16:33:03.753Z,10.77
2023-04-05T16:35:31.331Z,12.57
2023-04-05T16:37:58.673Z,10.95
2023-04-05T16:40:25.589Z,11.57
2023-04-05T16:42:54.259Z,10.25
2023-04-05T16:45:21.128Z,12.07
2023-04-05T16:47:48.342Z,11.30
2023-04-05T16:50:15.527Z,12.50
2023-04-05T16:52:42.475Z,15.25
2023-04-05T16:55:09.997Z,26.80
2023-04-05T16:57:36.815Z,23.88
2023-04-05T17:00:05.257Z,18.67
2023-04-05T17:02:32.173Z,18.15
2023-04-05T17:04:59.090Z,13.27
2023-04-05T17:07:25.869Z,17.17
2023-04-05T17:09:52.597Z,12.23
2023-04-05T17:12:20.627Z,13.63
2023-04-05T17:14:47.380Z,16.08
2023-04-05T17:17:14.088Z,12.23
2023-04-05T17:19:40.904Z,13.02
2023-04-05T17:22:07.720Z,13.75
2023-04-05T17:24:36.396Z,13.93
2023-04-05T17:27:03.997Z,14.15
2023-04-05T17:29:30.700Z,13.63
2023-04-05T17:31:57.588Z,13.30
2023-04-05T17:34:24.626Z,12.05
2023-04-05T17:36:52.858Z,14.95
2023-04-05T17:39:19.792Z,14.02
2023-04-05T17:41:46.883Z,14.20
2023-04-05T17:44:15.763Z,12.55
2023-04-05T17:46:51.042Z,10.90
2023-04-05T17:49:21.055Z,13.35
2023-04-05T17:51:48.244Z,15.82
2023-04-05T17:54:15.638Z,13.88
2023-04-05T17:56:42.422Z,11.65
2023-04-05T17:59:09.575Z,11.40
2023-04-05T18:01:37.918Z,14.40
2023-04-05T18:04:05.859Z,13.65
2023-04-05T18:06:32.913Z,15.95
2023-04-05T18:08:59.837Z,12.32
2023-04-05T18:11:26.610Z,11.30
2023-04-05T18:13:53.319Z,14.63
2023-04-05T18:16:20.023Z,14.15
2023-04-05T18:18:46.731Z,11.90
2023-04-05T18:21:13.420Z,11.50
2023-04-05T18:23:40.297Z,14.90
2023-04-05T18:26:10.261Z,14.75
2023-04-05T18:28:37.107Z,15.80
2023-04-05T18:31:03.743Z,14.13
2023-04-05T18:33:30.497Z,16.63
2023-04-05T18:35:57.266Z,13.05
2023-04-05T18:38:24.248Z,15.50
2023-04-05T18:40:50.948Z,12.02
2023-04-05T18:43:17.806Z,10.18
2023-04-05T18:45:44.578Z,12.55
2023-04-05T18:48:11.652Z,14.93
2023-04-05T18:50:38.515Z,13.18
2023-04-05T18:53:06.920Z,14.25
2023-04-05T18:55:33.884Z,15.77
2023-04-05T18:58:00.964Z,12.52
2023-04-05T19:00:27.831Z,14.50
2023-04-05T19:02:54.862Z,12.02
2023-04-05T19:05:21.772Z,13.45
2023-04-05T19:07:48.513Z,16.08
2023-04-05T19:10:15.657Z,13.70
2023-04-05T19:12:43.559Z,13.70
2023-04-05T19:15:10.667Z,14.20
2023-04-05T19:17:37.692Z,13.60
2023-04-05T19:20:05.071Z,12.77
2023-04-05T19:22:31.753Z,19.42
2023-04-05T19:24:58.739Z,17.38
2023-04-05T19:27:32.941Z,14.18
2023-04-05T19:29:59.649Z,13.50
2023-04-05T19:32:26.784Z,12.70
2023-04-05T19:34:53.586Z,13.93
2023-04-05T19:37:20.850Z,15.02
2023-04-05T19:39:48.296Z,13.00
2023-04-05T19:42:15.485Z,15.02
2023-04-05T19:44:51.222Z,16.00
2023-04-05T19:47:21.334Z,16.52
2023-04-05T19:49:50.247Z,14.75
2023-04-05T19:52:40.932Z,14.23
2023-04-05T19:55:32.634Z,16.20
2023-04-05T19:58:01.068Z,22.23
2023-04-05T20:00:52.706Z,19.90
2023-04-05T20:03:31.572Z,16.13
2023-04-05T20:05:58.230Z,18.23
2023-04-05T20:08:25.268Z,13.52
2023-04-05T20:10:53.267Z,13.77
2023-04-05T20:13:20.217Z,15.63
2023-04-05T20:15:51.918Z,14.80
2023-04-05T20:18:27.026Z,21.05
2023-04-05T20:20:55.205Z,16.08
2023-04-05T20:23:23.178Z,17.88
2023-04-05T20:25:51.389Z,18.92
2023-04-05T20:28:41.662Z,14.25
2023-04-05T20:31:18.178Z,13.18
2023-04-05T20:33:46.973Z,15.05
2023-04-05T20:36:22.521Z,14.13
2023-04-05T20:38:50.395Z,12.52
2023-04-05T20:41:18.984Z,12.43
2023-04-05T20:43:45.968Z,12.95
2023-04-05T20:46:13.089Z,13.13
2023-04-05T20:48:39.741Z,12.90
2023-04-05T20:51:07.902Z,15.25
2023-04-05T20:53:36.572Z,19.33
2023-04-05T20:56:07.996Z,19.73
2023-04-05T20:58:40.070Z,14.48
2023-04-05T21:01:08.409Z,14.25
2023-04-05T21:03:37.619Z,14.13
2023-04-05T21:06:06.185Z,13.80
2023-04-05T21:08:33.140Z,14.82
2023-04-05T21:11:00.173Z,15.45
2023-04-05T21:13:26.910Z,13.45
2023-04-05T21:15:55.262Z,13.38
2023-04-05T21:18:25.851Z,15.30
2023-04-05T21:20:53.893Z,12.93
2023-04-05T21:23:27.174Z,13.25
2023-04-05T21:25:58.235Z,16.13
2023-04-05T21:28:25.773Z,11.85
2023-04-05T21:30:53.224Z,15.38
2023-04-05T21:33:20.939Z,13.07
2023-04-05T21:35:47.730Z,12.00
2023-04-05T21:38:15.790Z,12.30
2023-04-05T21:40:44.721Z,12.73
2023-04-05T21:43:12.654Z,17.77
2023-04-05T21:45:39.280Z,15.90
2023-04-05T21:48:06.376Z,12.30
2023-04-05T21:50:33.844Z,11.10
2023-04-05T21:53:00.675Z,11.13
2023-04-05T21:55:27.435Z,11.27
2023-04-05T21:57:54.219Z,10.93
2023-04-05T22:00:21.032Z,11.40
2023-04-05T22:02:47.687Z,11.70
2023-04-05T22:05:25.697Z,9.77
2023-04-05T22:08:01.361Z,10.50
2023-04-05T22:10:28.687Z,9.15
2023-04-05T22:12:55.649Z,8.68
2023-04-05T22:15:22.271Z,8.63
2023-04-05T22:17:49.014Z,9.45
2023-04-05T22:20:16.052Z,10.27
2023-04-05T22:22:42.809Z,10.55
2023-04-05T22:25:10.018Z,10.55
2023-04-05T22:27:36.837Z,11.20
2023-04-05T22:30:05.458Z,10.70
2023-04-05T22:32:32.268Z,11.73
2023-04-05T22:34:58.984Z,13.65
2023-04-05T22:37:26.590Z,11.98
2023-04-05T22:39:53.179Z,14.90
2023-04-05T22:42:19.954Z,14.90
2023-04-05T22:44:46.671Z,14.63
2023-04-05T22:47:13.268Z,15.32
2023-04-05T22:49:40.287Z,14.95
2023-04-05T22:52:07.051Z,19.02
2023-04-05T22:54:33.772Z,18.13
2023-04-05T22:57:01.271Z,18.17
2023-04-05T22:59:28.063Z,15.85
2023-04-05T23:01:54.796Z,17.70
2023-04-05T23:04:21.712Z,19.15
2023-04-05T23:06:48.509Z,16.67
2023-04-05T23:09:15.431Z,18.02
2023-04-05T23:11:42.943Z,15.75
2023-04-05T23:14:09.915Z,15.98
2023-04-05T23:16:36.786Z,15.13
2023-04-05T23:19:03.944Z,16.05
2023-04-05T23:21:31.284Z,16.42
2023-04-05T23:23:57.884Z,14.38
2023-04-05T23:26:24.705Z,14.85
2023-04-05T23:28:51.325Z,15.07
2023-04-05T23:31:18.025Z,17.02
2023-04-05T23:33:44.711Z,17.75
2023-04-05T23:36:11.599Z,19.20
2023-04-05T23:38:38.220Z,17.73
2023-04-05T23:41:05.135Z,16.02
2023-04-05T23:43:32.251Z,17.88
2023-04-05T23:45:59.015Z,14.48
2023-04-05T23:48:26.295Z,14.95
2023-04-05T23:50:53.103Z,10.75
2023-04-05T23:53:20.000Z,14.95
2023-04-05T23:55:46.839Z,12.90
2023-04-05T23:58:13.580Z,12.10
